Time;durP1;ratioP1;P1;durP2;ratioP2;P2;SDS_P1;SDS_P2;PMS_P1;PMS_P2;Temp;Humidity;BMP_temperature;BMP_pressure;BME280_temperature;BME280_humidity;BME280_pressure;Samples;Min_cycle;Max_cycle;Signal;HPM_P1;HPM_P2
2022/03/22 00:00:42;;;;;;;26.45;15.77;;;11.30;83.30;;;9.72;73.04;102058.00;5007111;28;20049;-77
2022/03/22 00:03:09;;;;;;;28.80;14.95;;;11.20;83.00;;;9.71;72.65;102066.31;5002650;28;20881;-77
2022/03/22 00:05:40;;;;;;;31.05;15.55;;;11.20;82.90;;;9.72;72.65;102060.72;4990815;28;20207;-77
2022/03/22 00:08:07;;;;;;;24.13;14.20;;;11.20;83.10;;;9.69;72.32;102061.03;4996487;28;20050;-77
2022/03/22 00:10:36;;;;;;;26.33;14.27;;;11.20;83.10;;;9.69;71.82;102066.47;4993772;28;20038;-77
2022/03/22 00:13:05;;;;;;;27.30;14.90;;;11.20;82.70;;;9.67;72.35;102065.75;5011238;28;20045;-77
2022/03/22 00:15:33;;;;;;;24.08;14.80;;;11.20;82.50;;;9.68;71.87;102066.59;5009785;28;20046;-76
2022/03/22 00:18:02;;;;;;;24.15;15.25;;;11.20;82.20;;;9.65;71.27;102058.72;4981954;28;20435;-76
2022/03/22 00:20:30;;;;;;;28.52;15.15;;;11.20;81.90;;;9.62;71.33;102064.47;4999154;28;20522;-77
2022/03/22 00:22:58;;;;;;;24.25;14.95;;;11.20;82.00;;;9.59;71.07;102061.03;4997292;28;20047;-77
2022/03/22 00:25:25;;;;;;;26.00;15.38;;;11.10;81.50;;;9.47;71.21;102064.00;4991829;28;20050;-76
2022/03/22 00:27:53;;;;;;;24.00;14.95;;;11.10;81.70;;;9.44;70.98;102072.41;5001243;28;20110;-76
2022/03/22 00:30:23;;;;;;;24.75;15.98;;;11.00;82.00;;;9.43;71.38;102073.41;5005031;28;20413;-76
2022/03/22 00:32:53;;;;;;;25.17;15.40;;;11.00;82.30;;;9.32;71.56;102072.50;5008157;23;20061;-77
2022/03/22 00:35:24;;;;;;;23.27;15.30;;;10.90;82.50;;;9.34;71.28;102070.50;4996902;28;20148;-77
2022/03/22 00:37:53;;;;;;;27.10;15.00;;;10.90;82.50;;;9.35;71.37;102077.69;5011198;28;20092;-76
2022/03/22 00:40:22;;;;;;;25.60;15.38;;;10.90;82.60;;;9.30;71.59;102074.50;5009253;28;20045;-76
2022/03/22 00:42:52;;;;;;;25.52;15.18;;;10.90;82.90;;;9.28;71.54;102071.06;5007664;28;20046;-77
2022/03/22 00:45:26;;;;;;;23.88;13.60;;;10.80;82.80;;;9.21;71.73;102069.91;4991738;28;20587;-76
2022/03/22 00:47:55;;;;;;;28.27;15.43;;;10.80;82.70;;;9.20;71.96;102073.63;4990945;28;20053;-77
2022/03/22 00:50:28;;;;;;;28.02;14.68;;;10.90;83.40;;;9.15;71.55;102070.47;4991210;28;20042;-77
2022/03/22 00:52:56;;;;;;;23.77;14.57;;;10.70;83.30;;;9.07;71.14;102063.00;4990889;28;20464;-76
2022/03/22 00:55:24;;;;;;;26.95;16.23;;;10.70;83.10;;;8.97;72.09;102068.38;4990646;28;20101;-76
2022/03/22 00:57:53;;;;;;;31.65;16.08;;;10.70;83.20;;;8.93;72.16;102069.66;4983552;28;20575;-76
2022/03/22 01:00:25;;;;;;;28.38;15.23;;;10.60;83.30;;;8.94;72.51;102065.94;4991287;28;20416;-76
2022/03/22 01:02:55;;;;;;;27.85;14.80;;;10.60;83.40;;;8.99;72.13;102066.38;4990513;28;20049;-76
2022/03/22 01:05:28;;;;;;;25.98;14.95;;;10.60;82.70;;;9.03;70.69;102066.13;4990365;28;20035;-76
2022/03/22 01:07:58;;;;;;;25.00;14.88;;;10.60;82.10;;;9.03;71.04;102071.56;4987662;28;20070;-76
2022/03/22 01:10:29;;;;;;;30.00;16.30;;;10.60;82.40;;;9.02;70.64;102062.53;4990382;28;20068;-76
2022/03/22 01:12:57;;;;;;;26.40;16.42;;;10.60;82.20;;;9.01;71.29;102068.97;4994418;28;20150;-77
2022/03/22 01:15:28;;;;;;;25.75;15.05;;;10.60;82.00;;;9.04;71.09;102070.56;5002281;28;20048;-76
2022/03/22 01:17:56;;;;;;;;;;;10.60;82.20;;;9.06;70.80;102063.13;4983640;28;20048;-76
2022/03/22 01:20:26;;;;;;;25.98;15.32;;;10.60;82.20;;;9.06;70.88;102065.84;4990406;28;19957;-76
2022/03/22 01:22:55;;;;;;;25.17;14.90;;;10.60;82.10;;;8.90;71.24;102067.19;4990521;28;20050;-76
2022/03/22 01:25:27;;;;;;;22.00;13.80;;;10.60;82.60;;;8.60;74.62;102063.50;4990274;28;20050;-76
2022/03/22 01:27:56;;;;;;;26.20;14.75;;;10.50;83.80;;;8.37;76.04;102064.56;4989663;28;20042;-76
2022/03/22 01:30:25;;;;;;;25.65;14.90;;;10.40;84.70;;;8.24;76.31;102064.75;4989727;28;20077;-76
2022/03/22 01:32:55;;;;;;;27.20;15.77;;;10.40;85.30;;;8.25;75.81;102063.78;5001854;28;20062;-77
2022/03/22 01:35:25;;;;;;;26.50;15.05;;;10.20;85.50;;;8.34;75.48;102064.81;4998727;28;20046;-76
2022/03/22 01:37:54;;;;;;;25.45;15.60;;;10.20;85.60;;;8.41;75.02;102058.78;4990273;28;20082;-76
2022/03/22 01:40:24;;;;;;;25.30;15.32;;;10.20;85.00;;;8.46;74.33;102052.97;4990002;28;20054;-76
2022/03/22 01:42:53;;;;;;;29.95;16.85;;;10.20;84.20;;;8.48;73.38;102052.81;4990047;28;20504;-76
2022/03/22 01:45:20;;;;;;;30.52;15.43;;;10.10;84.20;;;8.52;73.54;102047.00;4989982;28;20108;-76
2022/03/22 01:47:50;;;;;;;27.10;15.75;;;10.10;83.90;;;8.56;73.04;102055.72;4979158;28;20408;-76
2022/03/22 01:50:20;;;;;;;24.50;14.27;;;10.20;83.70;;;8.58;72.84;102056.44;5006936;28;20121;-76
2022/03/22 01:52:49;;;;;;;24.25;14.38;;;10.20;83.60;;;8.63;72.28;102048.78;5002020;28;20035;-76
2022/03/22 01:55:19;;;;;;;24.98;15.75;;;10.20;83.70;;;8.67;72.66;102050.22;4989920;28;20056;-76
2022/03/22 01:57:47;;;;;;;27.75;15.25;;;10.20;83.30;;;8.73;71.66;102046.13;4972036;28;20054;-76
2022/03/22 02:00:18;;;;;;;24.67;14.98;;;10.30;82.90;;;8.77;71.48;102044.84;4989784;28;20034;-76
2022/03/22 02:08:32;;;;;;;26.17;15.38;;;10.50;81.50;;;8.93;69.05;102039.78;4965426;28;20531;-76
2022/03/22 02:11:01;;;;;;;29.67;14.87;;;10.50;81.00;;;8.95;70.30;102036.94;4989141;28;20060;-76
2022/03/22 02:13:29;;;;;;;26.73;14.93;;;10.50;80.70;;;8.95;70.42;102028.78;4989708;28;20070;-76
2022/03/22 02:16:01;;;;;;;27.42;15.50;;;10.50;81.00;;;8.91;69.23;102028.22;4988988;28;20575;-77
2022/03/22 02:18:29;;;;;;;25.50;14.32;;;10.50;80.90;;;8.86;69.96;102027.75;4988955;28;20046;-76
2022/03/22 02:20:56;;;;;;;24.63;14.70;;;10.50;81.20;;;8.93;70.32;102031.66;4997594;28;20053;-76
2022/03/22 02:23:48;;;;;;;24.42;14.52;;;10.50;81.40;;;8.98;70.51;102028.50;4996350;28;20485;-76
2022/03/22 02:26:16;;;;;;;29.20;14.82;;;10.60;81.90;;;8.94;69.37;102030.63;4989037;28;20045;-76
2022/03/22 02:28:43;;;;;;;23.45;14.85;;;10.60;80.60;;;8.91;69.95;102028.22;4988913;28;20054;-76
2022/03/22 02:31:11;;;;;;;25.88;14.48;;;10.50;81.00;;;8.85;69.91;102030.59;4989225;28;20046;-76
2022/03/22 02:33:41;;;;;;;22.63;14.80;;;10.50;81.50;;;8.78;70.18;102033.00;4988913;28;20673;-77
2022/03/22 02:36:09;;;;;;;23.67;14.57;;;10.50;81.90;;;8.78;70.53;102035.72;4995994;28;20046;-76
2022/03/22 02:38:36;;;;;;;24.58;14.15;;;10.40;82.00;;;8.82;69.92;102026.31;4990318;28;20122;-76
2022/03/22 02:41:06;;;;;;;22.70;14.32;;;10.40;81.60;;;8.86;69.81;102025.03;4988742;28;20051;-76
2022/03/22 02:43:34;;;;;;;26.77;14.77;;;10.40;81.40;;;8.92;70.21;102024.47;4989347;28;20041;-77
2022/03/22 02:46:01;;;;;;;25.42;14.70;;;10.50;81.00;;;8.98;70.08;102023.94;4989222;28;20392;-76
2022/03/22 02:48:28;;;;;;;23.38;13.88;;;10.50;80.20;;;9.02;66.86;102023.66;4989093;28;20576;-76
2022/03/22 02:50:56;;;;;;;24.02;14.80;;;10.60;80.00;;;8.99;67.64;102030.25;4988110;28;20067;-76
2022/03/22 02:53:23;;;;;;;25.35;14.80;;;10.60;78.70;;;8.97;68.25;102026.81;5001904;28;20052;-76
2022/03/22 02:55:51;;;;;;;25.80;14.57;;;10.60;78.70;;;8.94;67.96;102033.34;4989178;28;20291;-76
2022/03/22 02:58:19;;;;;;;26.05;15.30;;;10.60;79.50;;;8.89;68.39;102032.03;4971725;28;20427;-76
2022/03/22 03:00:46;;;;;;;23.25;15.02;;;10.50;79.50;;;8.86;68.37;102025.03;4989092;28;20085;-76
2022/03/22 03:03:14;;;;;;;26.98;14.88;;;10.50;79.80;;;8.90;68.75;102028.34;4989286;28;20049;-76
2022/03/22 03:05:41;;;;;;;23.60;13.85;;;10.50;79.50;;;8.95;67.77;102029.66;4988761;28;20073;-76
2022/03/22 03:08:08;;;;;;;26.83;13.18;;;10.50;78.60;;;8.99;65.34;102028.38;4988290;28;20047;-76
2022/03/22 03:10:35;;;;;;;25.55;13.65;;;10.60;76.70;;;9.03;65.04;102036.25;4980314;28;20138;-76
2022/03/22 03:13:05;;;;;;;26.05;14.05;;;10.60;76.70;;;9.07;65.95;102029.56;5008587;28;20077;-76
2022/03/22 03:15:34;;;;;;;25.70;13.90;;;10.60;75.70;;;9.10;66.11;102041.00;4992999;28;20062;-76
2022/03/22 03:18:02;;;;;;;25.52;13.95;;;10.70;75.80;;;9.12;65.37;102038.13;4988815;28;20079;-76
2022/03/22 03:20:29;;;;;;;22.05;12.75;;;10.70;74.90;;;9.13;62.40;102037.16;4988943;28;20057;-76
2022/03/22 03:22:57;;;;;;;23.50;13.85;;;10.70;75.00;;;9.12;62.98;102040.84;4989062;28;20382;-76
2022/03/22 03:25:25;;;;;;;20.30;12.80;;;10.70;75.40;;;9.11;64.77;102044.56;4992132;28;20042;-77
2022/03/22 03:27:52;;;;;;;25.67;13.60;;;10.70;74.50;;;9.08;63.82;102047.53;4997675;28;20046;-76
2022/03/22 03:30:20;;;;;;;20.10;12.75;;;10.70;75.00;;;9.07;65.02;102041.25;4992218;28;20113;-76
2022/03/22 03:32:49;;;;;;;19.77;12.30;;;10.70;75.30;;;9.08;64.79;102048.44;4992812;28;20046;-76
2022/03/22 03:35:16;;;;;;;23.95;13.10;;;10.70;75.50;;;9.08;64.32;102045.72;4992096;28;20042;-76
2022/03/22 03:37:44;;;;;;;26.75;13.23;;;10.60;74.40;;;9.05;64.19;102050.56;4992008;28;20042;-76
2022/03/22 03:40:13;;;;;;;21.98;12.82;;;10.60;75.10;;;9.00;63.62;102051.84;4992040;28;20513;-76
2022/03/22 03:42:43;;;;;;;22.23;13.52;;;10.60;75.00;;;9.04;64.64;102048.81;4993796;28;20416;-76
2022/03/22 03:47:59;;;;;;;19.67;11.75;;;10.60;74.10;;;9.08;64.06;102044.84;4992244;28;20524;-76
2022/03/22 03:50:27;;;;;;;22.00;12.52;;;10.70;73.60;;;9.09;63.49;102049.28;4992139;28;20042;-76
2022/03/22 03:52:54;;;;;;;20.20;11.52;;;10.70;72.30;;;9.10;62.81;102056.41;4992553;28;20046;-76
2022/03/22 03:55:22;;;;;;;19.70;10.95;;;10.70;71.80;;;9.10;60.64;102056.41;4991569;28;20085;-76
2022/03/22 03:57:49;;;;;;;18.65;10.80;;;10.70;72.00;;;9.09;62.54;102058.28;4991620;28;20129;-76
2022/03/22 04:00:19;;;;;;;18.67;11.23;;;10.70;70.40;;;9.12;62.43;102063.44;4998830;28;20124;-76
2022/03/22 04:02:46;;;;;;;19.30;10.63;;;10.70;71.40;;;9.13;60.28;102059.72;4988725;28;20116;-76
2022/03/22 04:05:15;;;;;;;19.10;10.35;;;10.80;71.10;;;9.15;62.41;102059.59;4992121;28;20135;-76
2022/03/22 04:11:42;;;;;;;17.00;11.02;;;10.80;68.20;;;9.17;60.97;102058.44;4991007;28;20120;-76
2022/03/22 04:14:09;;;;;;;18.95;11.25;;;10.80;69.40;;;9.18;60.87;102053.91;4991393;28;20461;-76
2022/03/22 04:16:37;;;;;;;20.98;10.68;;;10.80;69.80;;;9.18;60.39;102059.31;5001853;28;20596;-76
2022/03/22 04:19:07;;;;;;;20.55;11.77;;;10.80;68.20;;;9.18;60.54;102059.31;4991581;28;20077;-76
2022/03/22 04:21:37;;;;;;;22.70;11.00;;;10.80;68.30;;;9.19;60.07;102055.59;4991677;28;20727;-76
2022/03/22 04:24:06;;;;;;;22.13;11.30;;;10.80;68.80;;;9.19;58.75;102056.47;4991561;28;20492;-76
2022/03/22 04:26:35;;;;;;;18.17;10.73;;;10.80;69.00;;;9.21;59.77;102059.03;4991050;28;20050;-76
2022/03/22 04:34:39;;;;;;;21.80;10.65;;;10.80;68.50;;;9.20;59.73;102069.03;5001809;28;20531;-75
2022/03/22 04:37:12;;;;;;;18.55;11.23;;;10.80;68.30;;;9.17;58.50;102063.88;4992019;28;20042;-75
2022/03/22 04:39:41;;;;;;;17.02;10.07;;;10.80;68.00;;;9.14;58.44;102063.31;4990781;28;20050;-76
2022/03/22 04:42:09;;;;;;;18.88;11.25;;;10.70;67.70;;;9.09;57.25;102065.56;4990543;28;20061;-75
2022/03/22 04:44:37;;;;;;;18.75;10.45;;;10.70;68.20;;;9.05;58.19;102069.56;4991573;28;20066;-75
2022/03/22 04:47:05;;;;;;;19.92;10.50;;;10.70;68.70;;;9.02;58.11;102065.25;4990415;28;20576;-75
2022/03/22 04:49:35;;;;;;;18.45;10.85;;;10.60;69.20;;;8.95;58.64;102081.25;4980493;28;20144;-75
2022/03/22 04:57:29;;;;;;;17.42;10.80;;;10.50;70.40;;;8.77;59.00;102072.00;4971353;28;20067;-76
2022/03/22 04:59:57;;;;;;;21.02;10.85;;;10.40;70.30;;;8.70;58.54;102070.78;4988798;28;20046;-75
2022/03/22 05:02:24;;;;;;;20.33;10.95;;;10.40;70.20;;;8.69;58.89;102072.66;4990885;28;20097;-76
2022/03/22 05:04:51;;;;;;;20.58;11.48;;;10.30;70.10;;;8.69;58.84;102075.38;4990662;28;20310;-75
2022/03/22 05:07:18;;;;;;;18.73;11.40;;;10.30;71.00;;;8.69;59.48;102071.81;4989907;28;20043;-75
2022/03/22 05:09:47;;;;;;;20.42;10.50;;;10.30;71.00;;;8.67;59.31;102071.09;4983427;28;20050;-76
2022/03/22 05:12:14;;;;;;;17.42;10.60;;;10.30;70.50;;;8.64;58.46;102079.47;4990212;28;20049;-75
2022/03/22 05:14:43;;;;;;;20.30;10.38;;;10.20;70.70;;;8.35;59.02;102071.97;4990574;28;20050;-75
2022/03/22 05:17:11;;;;;;;18.55;10.88;;;10.20;70.90;;;8.17;60.76;102086.13;4989883;28;20077;-76
2022/03/22 05:19:40;;;;;;;20.88;10.65;;;10.10;71.80;;;8.00;60.96;102087.53;4990056;28;20042;-76
2022/03/22 05:22:07;;;;;;;19.40;11.10;;;10.10;72.40;;;8.08;61.50;102091.47;4989277;28;20085;-76
2022/03/22 05:24:35;;;;;;;21.55;11.23;;;10.00;73.20;;;8.02;61.55;102084.72;4997223;28;20141;-75
2022/03/22 05:27:06;;;;;;;18.73;10.40;;;10.00;72.40;;;7.94;61.50;102090.78;5000055;28;20042;-76
2022/03/22 05:29:33;;;;;;;18.35;10.82;;;9.80;72.50;;;7.86;61.70;102090.53;4990305;28;20620;-75
2022/03/22 05:32:01;;;;;;;21.20;10.25;;;9.80;73.00;;;7.78;61.28;102099.31;4989787;28;20500;-75
2022/03/22 05:34:28;;;;;;;15.75;10.52;;;9.80;73.20;;;7.72;61.96;102099.81;4990381;28;20034;-75
2022/03/22 05:36:55;;;;;;;19.23;10.48;;;9.70;73.80;;;7.63;62.74;102103.28;4989990;28;20046;-76
2022/03/22 05:39:22;;;;;;;18.33;10.80;;;9.60;74.20;;;7.68;63.47;102098.34;4989397;28;20046;-76
2022/03/22 05:41:51;;;;;;;17.42;10.15;;;9.60;74.50;;;7.70;63.04;102099.09;5001516;28;20046;-75
2022/03/22 05:44:20;;;;;;;19.08;11.20;;;9.50;74.80;;;7.66;62.58;102100.34;4990329;28;20066;-75
2022/03/22 05:46:48;;;;;;;18.05;10.48;;;9.50;74.70;;;7.61;62.99;102103.41;4989130;28;20046;-75
2022/03/22 05:49:16;;;;;;;20.42;11.60;;;9.40;74.80;;;7.69;63.19;102102.81;4987644;28;20121;-75
2022/03/22 05:51:43;;;;;;;18.33;10.88;;;9.40;75.50;;;7.64;64.14;102105.03;4989393;28;20412;-75
2022/03/22 05:54:13;;;;;;;19.40;10.57;;;9.40;75.60;;;7.63;63.30;102104.19;4989527;28;20038;-75
2022/03/22 05:56:40;;;;;;;19.02;11.02;;;9.40;75.30;;;7.56;63.78;102108.38;4990487;28;20095;-75
2022/03/22 05:59:07;;;;;;;18.40;11.00;;;9.40;75.70;;;7.46;64.52;102109.22;4997740;28;20539;-75
2022/03/22 06:01:36;;;;;;;17.52;10.38;;;9.30;76.10;;;7.45;64.66;102105.66;4989476;28;20046;-75
2022/03/22 06:04:04;;;;;;;21.73;10.50;;;9.30;76.60;;;7.48;64.92;102109.97;4990283;28;20038;-76
2022/03/22 06:06:31;;;;;;;19.17;11.27;;;9.30;76.70;;;7.56;64.87;102113.78;4989344;28;20050;-75
2022/03/22 06:08:58;;;;;;;18.83;10.93;;;9.30;77.60;;;7.67;65.37;102115.59;4990076;28;20125;-75
2022/03/22 06:11:25;;;;;;;16.98;10.50;;;9.30;77.30;;;7.70;64.94;102119.91;4988212;28;20052;-75
2022/03/22 06:13:52;;;;;;;18.15;10.95;;;9.30;77.30;;;7.74;65.56;102113.25;4989050;28;20070;-75
2022/03/22 06:16:20;;;;;;;18.02;10.52;;;9.40;77.70;;;7.72;65.31;102118.78;5006427;28;20133;-75
2022/03/22 06:18:49;;;;;;;21.08;11.45;;;9.40;77.40;;;7.76;65.67;102119.41;4989153;28;20053;-75
2022/03/22 06:21:16;;;;;;;17.38;10.73;;;9.40;78.00;;;7.91;65.26;102125.41;4989338;28;20046;-75
2022/03/22 06:23:43;;;;;;;20.75;12.18;;;9.40;78.70;;;8.05;64.91;102125.09;4989794;28;20057;-75
2022/03/22 06:26:10;;;;;;;20.05;11.45;;;9.50;78.30;;;8.10;65.33;102128.31;4989179;28;20120;-75
2022/03/22 06:28:37;;;;;;;21.05;11.80;;;9.50;79.10;;;8.14;65.98;102124.34;4988408;28;20087;-75
2022/03/22 06:31:05;;;;;;;19.27;11.85;;;9.60;79.10;;;8.20;65.77;102122.97;4995518;28;20050;-76
2022/03/22 06:33:33;;;;;;;21.30;12.35;;;9.60;79.10;;;8.27;66.31;102128.75;5068351;23;20184;-76
2022/03/22 06:36:02;;;;;;;18.45;12.43;;;9.60;79.70;;;8.32;66.49;102131.91;5064615;28;20396;-76
2022/03/22 06:38:32;;;;;;;22.40;12.57;;;9.70;80.40;;;8.38;66.60;102132.25;5066377;28;20104;-76
2022/03/22 06:40:59;;;;;;;20.65;11.93;;;9.80;79.70;;;8.45;66.30;102127.19;5067626;28;20041;-73
2022/03/22 06:43:26;;;;;;;23.35;12.55;;;9.80;80.10;;;8.57;66.33;102131.59;5048374;28;20041;-73
2022/03/22 06:45:54;;;;;;;22.15;13.15;;;9.80;80.00;;;8.67;65.94;102134.38;5045841;28;20114;-73
2022/03/22 06:48:22;;;;;;;22.35;12.55;;;10.00;80.30;;;8.80;66.04;102131.47;5047629;28;20069;-74
2022/03/22 06:50:51;;;;;;;21.35;13.02;;;10.00;79.10;;;8.88;66.18;102139.78;5047838;28;20033;-74
2022/03/22 06:53:20;;;;;;;24.60;12.65;;;10.10;80.30;;;8.96;66.64;102142.69;5048942;28;20064;-73
2022/03/22 06:55:50;;;;;;;25.85;12.10;;;10.20;80.40;;;9.03;66.23;102139.44;5044788;28;20245;-73
2022/03/22 06:58:21;;;;;;;24.50;13.00;;;10.20;80.80;;;9.12;66.76;102146.75;5048173;28;20532;-73
2022/03/22 07:00:48;;;;;;;20.90;12.00;;;10.30;81.20;;;9.23;65.04;102143.97;5047168;28;20178;-74
2022/03/22 07:03:16;;;;;;;19.17;12.23;;;10.40;77.30;;;9.34;65.74;102143.88;5049897;28;20534;-74
2022/03/22 07:05:45;;;;;;;21.38;12.07;;;10.50;78.70;;;9.45;65.32;102142.94;5051027;28;20037;-75
2022/03/22 07:08:13;;;;;;;20.15;11.88;;;10.70;78.60;;;9.55;64.94;102140.25;5052107;28;20045;-75
2022/03/22 07:11:47;;;;;;;23.15;12.77;;;10.70;77.80;;;9.67;62.87;102141.88;5048634;28;20045;-74
2022/03/22 07:13:32;;;;;;;21.27;11.98;;;10.80;74.10;;;9.79;61.70;102146.19;5052028;28;20473;-74
2022/03/22 07:16:00;;;;;;;25.63;12.13;;;11.00;74.30;;;9.92;61.02;102145.94;5050620;28;20048;-75
2022/03/22 07:18:27;;;;;;;21.20;12.73;;;11.10;72.70;;;10.04;60.56;102138.50;5050439;28;20052;-75
2022/03/22 07:20:55;;;;;;;21.63;12.32;;;11.20;73.30;;;10.20;61.11;102148.81;5065896;28;20072;-75
2022/03/22 07:23:22;;;;;;;20.30;11.95;;;11.30;72.60;;;10.34;57.33;102147.59;5052049;28;20049;-75
2022/03/22 07:25:51;;;;;;;20.77;11.95;;;11.50;70.30;;;10.47;57.93;102140.00;5050776;28;20098;-75
2022/03/22 07:28:18;;;;;;;21.83;11.35;;;11.60;68.40;;;10.59;57.36;102148.88;5051654;28;20588;-75
2022/03/22 07:30:45;;;;;;;20.83;11.65;;;11.70;67.40;;;10.73;55.52;102144.84;5051701;28;20513;-75
2022/03/22 07:33:13;;;;;;;19.27;11.45;;;11.80;67.00;;;10.83;55.49;102145.66;5052191;28;20045;-75
2022/03/22 07:35:40;;;;;;;20.90;11.32;;;11.90;65.50;;;10.92;55.53;102139.34;5049328;28;20029;-75
2022/03/22 07:38:08;;;;;;;21.58;11.70;;;12.00;64.40;;;11.02;54.80;102142.03;5051277;28;20045;-75
2022/03/22 07:40:35;;;;;;;19.50;12.48;;;12.10;63.30;;;11.10;52.01;102146.75;5051543;28;20190;-75
2022/03/22 07:43:03;;;;;;;18.10;11.45;;;12.20;63.30;;;11.18;54.22;102144.16;5047200;28;20072;-75
2022/03/22 07:45:31;;;;;;;25.45;12.50;;;12.30;63.60;;;11.23;52.20;102132.81;5050081;28;20604;-75
2022/03/22 07:47:58;;;;;;;20.40;12.00;;;12.30;62.70;;;11.31;52.00;102135.66;5051918;28;20041;-75
2022/03/22 07:53:10;;;;;;;24.05;11.55;;;12.60;60.90;;;11.54;51.73;102144.31;5046877;28;20040;-74
2022/03/22 07:55:39;;;;;;;19.08;11.35;;;12.60;61.70;;;11.64;52.68;102144.25;5049830;28;20476;-75
2022/03/22 07:58:09;;;;;;;18.50;11.45;;;12.70;61.40;;;11.72;51.24;102142.47;5050211;28;20041;-75
2022/03/22 08:00:38;;;;;;;20.77;11.77;;;12.80;59.90;;;11.80;50.10;102144.44;5051121;28;20518;-75
2022/03/22 08:03:09;;;;;;;19.55;11.52;;;12.90;59.50;;;11.86;49.66;102149.31;5051566;28;20052;-75
2022/03/22 08:05:36;;;;;;;18.95;11.45;;;13.00;59.60;;;11.92;49.56;102150.59;5049978;28;20086;-75
2022/03/22 08:08:04;;;;;;;22.38;11.55;;;13.10;59.30;;;12.02;49.08;102147.81;5051074;28;20044;-75
2022/03/22 08:10:32;;;;;;;21.17;11.55;;;13.10;58.80;;;12.09;48.06;102147.03;5050924;28;20073;-75
2022/03/22 08:12:59;;;;;;;20.10;11.38;;;13.20;58.30;;;12.17;49.29;102148.13;5050433;28;20068;-75
2022/03/22 08:15:29;;;;;;;22.23;12.00;;;13.30;58.10;;;12.25;47.00;102153.66;5046607;28;20064;-75
2022/03/22 08:17:57;;;;;;;17.80;10.68;;;13.40;58.40;;;12.32;45.09;102149.31;5044751;28;20059;-75
2022/03/22 08:20:27;;;;;;;22.83;11.27;;;13.40;56.80;;;12.40;47.53;102149.38;5050398;28;20130;-75
2022/03/22 08:22:59;;;;;;;20.50;11.23;;;13.50;56.90;;;12.53;46.01;102146.25;5051459;28;20445;-75
2022/03/22 08:25:30;;;;;;;23.60;11.75;;;13.60;57.70;;;12.57;46.61;102152.25;5049570;28;20040;-75
2022/03/22 08:28:00;;;;;;;19.63;10.88;;;13.70;55.30;;;12.64;44.75;102148.75;5049162;28;20080;-75
2022/03/22 08:30:30;;;;;;;18.13;11.00;;;13.80;55.20;;;12.70;44.34;102147.25;5048256;28;20530;-76
2022/03/22 08:33:00;;;;;;;19.87;11.03;;;13.80;53.90;;;12.76;45.24;102151.22;5036429;28;20049;-75
2022/03/22 08:35:28;;;;;;;22.27;10.00;;;13.80;53.90;;;12.80;44.34;102148.00;5029303;28;20371;-75
2022/03/22 08:37:57;;;;;;;17.90;10.45;;;13.90;53.70;;;12.87;44.79;102138.16;5030573;28;20092;-75
2022/03/22 08:40:25;;;;;;;19.00;10.75;;;14.00;52.60;;;12.95;43.91;102144.69;5030374;28;20254;-76
2022/03/22 08:42:53;;;;;;;17.90;10.88;;;14.10;52.60;;;13.01;43.50;102147.63;5030381;28;20479;-76
2022/03/22 08:45:27;;;;;;;18.23;11.10;;;14.10;52.80;;;13.06;43.85;102147.13;5028949;28;20087;-76
2022/03/22 08:47:58;;;;;;;15.43;10.77;;;14.20;52.30;;;13.08;42.92;102137.78;5029536;28;20068;-75
2022/03/22 08:50:25;;;;;;;22.08;10.65;;;14.20;51.80;;;13.16;42.79;102147.06;5030122;28;20057;-75
2022/03/22 08:52:53;;;;;;;14.82;9.65;;;14.30;52.70;;;13.21;43.27;102145.56;5030855;28;20119;-75
2022/03/22 08:55:23;;;;;;;17.80;10.05;;;14.30;52.30;;;13.25;42.27;102146.06;5028738;28;20095;-76
2022/03/22 08:57:52;;;;;;;21.70;10.18;;;14.40;53.50;;;13.29;43.16;102142.84;5030086;28;20052;-76
2022/03/22 09:00:21;;;;;;;15.75;10.27;;;14.40;52.80;;;13.40;42.48;102149.09;5030360;28;20555;-76
2022/03/22 09:02:51;;;;;;;17.27;10.95;;;14.50;53.20;;;13.41;43.08;102145.34;5028847;28;20132;-76
2022/03/22 09:08:06;;;;;;;15.20;9.95;;;14.60;51.50;;;13.46;42.36;102145.69;5027256;28;20120;-76
2022/03/22 09:10:35;;;;;;;15.25;10.30;;;14.60;51.60;;;13.53;42.61;102144.03;5026246;28;20048;-76
2022/03/22 09:13:03;;;;;;;15.77;10.13;;;14.70;52.10;;;13.57;41.51;102141.81;5025379;28;20679;-75
2022/03/22 09:15:31;;;;;;;16.35;10.82;;;14.80;50.90;;;13.62;41.79;102140.31;5024359;28;20037;-76
2022/03/22 09:17:59;;;;;;;18.08;9.85;;;14.90;51.50;;;13.73;41.34;102138.28;5025935;28;20053;-76
2022/03/22 09:20:31;;;;;;;17.35;10.15;;;14.90;51.10;;;13.76;39.95;102137.97;5027155;28;20041;-76
2022/03/22 09:22:59;;;;;;;22.30;10.05;;;14.90;49.50;;;13.74;40.56;102134.53;5010797;28;20057;-76
2022/03/22 09:25:27;;;;;;;15.45;10.55;;;14.90;48.90;;;13.80;41.13;102139.34;5027801;28;20064;-76
2022/03/22 09:27:55;;;;;;;16.70;10.32;;;15.00;50.90;;;13.87;41.12;102134.91;5026096;28;20103;-76
2022/03/22 09:30:23;;;;;;;14.80;9.57;;;15.10;50.00;;;13.89;39.92;102128.25;5028658;28;20092;-76
2022/03/22 09:32:51;;;;;;;18.08;11.77;;;15.10;49.80;;;13.97;40.75;102130.16;5039962;28;20041;-76
2022/03/22 09:35:19;;;;;;;18.92;10.32;;;15.10;49.70;;;14.05;38.57;102121.97;5046913;28;20041;-76
2022/03/22 09:37:50;;;;;;;15.32;9.48;;;15.20;48.50;;;14.02;40.09;102127.78;5048649;28;20033;-76
2022/03/22 09:40:20;;;;;;;16.42;9.77;;;15.20;47.50;;;14.02;38.95;102121.44;5048551;28;20041;-76
2022/03/22 09:42:48;;;;;;;15.18;9.63;;;15.20;48.50;;;14.05;39.81;102116.50;5041873;28;20116;-76
2022/03/22 09:45:17;;;;;;;15.68;9.65;;;15.20;48.80;;;14.06;38.72;102109.97;5037181;28;20044;-76
2022/03/22 09:47:46;;;;;;;19.50;10.10;;;15.30;48.30;;;14.12;39.99;102115.81;5047245;28;20091;-76
2022/03/22 09:50:16;;;;;;;15.43;10.48;;;15.30;49.60;;;14.15;40.48;102110.88;5040446;28;20511;-76
2022/03/22 09:52:43;;;;;;;17.35;10.75;;;15.40;49.40;;;14.21;40.27;102120.28;5044104;28;20044;-76
2022/03/22 09:55:16;;;;;;;16.13;10.10;;;15.40;49.90;;;14.21;39.48;102109.34;5035097;28;20041;-76
2022/03/22 09:57:44;;;;;;;17.70;10.45;;;15.40;48.70;;;14.20;39.50;102118.56;5042432;28;20044;-76
2022/03/22 10:00:16;;;;;;;16.60;9.05;;;15.40;47.70;;;14.19;38.89;102111.38;5041166;28;20099;-76
2022/03/22 10:02:43;;;;;;;19.17;10.02;;;15.40;48.20;;;14.25;39.81;102108.81;5042094;28;20189;-76
2022/03/22 10:05:23;;;;;;;18.25;9.48;;;15.50;49.00;;;14.23;39.54;102110.00;5037742;28;20043;-76
2022/03/22 10:07:59;;;;;;;20.65;9.65;;;15.50;48.90;;;14.25;39.05;102106.06;5038258;28;20051;-76
2022/03/22 10:10:29;;;;;;;18.42;10.10;;;15.50;48.30;;;14.23;39.25;102099.91;5055492;28;20090;-76
2022/03/22 10:12:59;;;;;;;16.10;10.35;;;15.50;48.20;;;14.28;39.35;102104.91;5053793;28;20140;-76
2022/03/22 10:15:32;;;;;;;16.70;10.52;;;15.40;48.40;;;14.27;38.99;102093.06;5037530;28;20029;-76
2022/03/22 10:18:09;;;;;;;16.52;10.30;;;15.50;48.30;;;14.28;38.84;102099.41;5040270;28;20052;-76
2022/03/22 10:20:38;;;;;;;17.02;10.32;;;15.50;48.00;;;14.26;38.87;102093.25;5048037;28;20049;-76
2022/03/22 10:23:09;;;;;;;16.35;10.05;;;15.50;48.30;;;14.30;39.48;102097.34;5046573;28;20049;-76
2022/03/22 10:25:42;;;;;;;21.77;10.77;;;15.50;48.90;;;14.34;39.14;102093.25;5045461;28;20052;-76
2022/03/22 10:28:10;;;;;;;17.77;9.98;;;15.50;48.60;;;14.38;38.44;102093.78;5045735;28;20072;-76
2022/03/22 10:30:38;;;;;;;19.70;10.25;;;15.50;48.50;;;14.41;38.42;102097.03;5045437;28;20693;-76
2022/03/22 10:33:07;;;;;;;16.67;10.13;;;15.50;48.40;;;14.41;38.71;102087.94;5040401;28;20052;-76
2022/03/22 10:35:37;;;;;;;20.58;11.23;;;15.50;48.20;;;14.42;39.20;102090.50;5038614;28;20048;-77
2022/03/22 10:38:06;;;;;;;20.77;9.95;;;15.50;48.60;;;14.48;38.64;102083.47;5049056;28;20461;-76
2022/03/22 10:40:40;;;;;;;22.27;10.27;;;15.60;49.80;;;14.48;39.36;102083.47;5042301;28;20501;-77